Time;durP1;ratioP1;P1;durP2;ratioP2;P2;SDS_P1;SDS_P2;PMS_P1;PMS_P2;Temp;Humidity;BMP_temperature;BMP_pressure;BME280_temperature;BME280_humidity;BME280_pressure;Samples;Min_cycle;Max_cycle;Signal;HPM_P1;HPM_P2
2023/12/29 00:01:51;;;;;;;1.60;1.50;;;7.50;99.90;;;;;;5180942;28;20434;-49
2023/12/29 00:04:22;;;;;;;3.07;1.63;;;7.50;99.90;;;;;;5179330;28;20327;-48
2023/12/29 00:06:53;;;;;;;3.53;2.10;;;7.60;99.90;;;;;;5199989;28;20758;-47
2023/12/29 00:09:23;;;;;;;5.90;1.40;;;7.50;99.90;;;;;;5202643;28;20191;-49
2023/12/29 00:11:54;;;;;;;1.60;1.50;;;7.60;99.90;;;;;;5199162;28;20183;-49
2023/12/29 00:14:26;;;;;;;1.97;1.50;;;7.60;99.90;;;;;;5194176;28;20210;-49
2023/12/29 00:16:57;;;;;;;1.60;1.43;;;7.60;99.90;;;;;;5194627;28;20751;-49
2023/12/29 00:19:27;;;;;;;1.43;1.40;;;7.60;99.90;;;;;;5178124;28;20970;-49
2023/12/29 00:21:59;;;;;;;1.47;1.40;;;7.60;99.90;;;;;;5197166;28;20454;-49
2023/12/29 00:24:33;;;;;;;1.77;1.67;;;7.60;99.90;;;;;;5187152;28;20187;-50
2023/12/29 00:27:04;;;;;;;3.17;1.80;;;7.70;99.90;;;;;;5201157;28;20523;-49
2023/12/29 00:29:35;;;;;;;4.03;1.90;;;7.70;99.90;;;;;;5180122;28;20439;-48
2023/12/29 00:32:05;;;;;;;1.10;1.10;;;7.80;99.90;;;;;;5197258;28;20560;-48
2023/12/29 00:34:37;;;;;;;2.40;1.43;;;7.70;99.90;;;;;;5177536;28;20194;-48
2023/12/29 00:37:08;;;;;;;1.40;1.30;;;7.80;99.90;;;;;;5198052;28;20199;-49
2023/12/29 00:39:39;;;;;;;1.37;1.33;;;7.70;99.90;;;;;;5184640;28;20454;-48
2023/12/29 00:42:10;;;;;;;1.87;1.40;;;7.70;99.90;;;;;;5163468;28;20938;-49
2023/12/29 00:44:41;;;;;;;1.50;1.50;;;7.70;99.90;;;;;;5167866;28;20442;-48
2023/12/29 00:47:11;;;;;;;2.20;1.30;;;7.70;99.90;;;;;;5185095;28;20214;-48
2023/12/29 00:49:42;;;;;;;5.40;1.70;;;7.70;99.90;;;;;;5204023;28;20175;-48
2023/12/29 00:52:13;;;;;;;2.67;1.30;;;7.80;99.90;;;;;;5202677;28;20230;-49
2023/12/29 00:54:43;;;;;;;1.20;1.10;;;7.70;99.90;;;;;;5203221;28;20593;-49
2023/12/29 00:57:14;;;;;;;1.40;1.30;;;7.70;99.90;;;;;;5209172;28;20679;-50
2023/12/29 00:59:47;;;;;;;2.20;1.20;;;7.70;99.90;;;;;;5203284;28;20188;-48
2023/12/29 01:02:17;;;;;;;1.73;1.50;;;7.70;99.90;;;;;;5183356;28;20512;-48
2023/12/29 01:04:48;;;;;;;1.83;1.70;;;7.70;99.90;;;;;;5205337;28;20493;-47
2023/12/29 01:07:18;;;;;;;0.93;0.93;;;7.70;99.90;;;;;;5185739;28;20203;-48
2023/12/29 01:09:49;;;;;;;4.47;1.27;;;7.70;99.90;;;;;;5177989;28;20180;-48
2023/12/29 01:12:20;;;;;;;1.50;1.33;;;7.70;99.90;;;;;;5195580;28;20227;-50
2023/12/29 01:14:50;;;;;;;0.90;0.90;;;7.60;99.90;;;;;;5197360;28;20183;-48
2023/12/29 01:17:22;;;;;;;1.13;1.10;;;7.70;99.90;;;;;;5200893;28;20282;-48
2023/12/29 01:19:52;;;;;;;3.20;1.13;;;7.70;99.90;;;;;;5202634;28;20191;-49
2023/12/29 01:22:23;;;;;;;1.60;1.50;;;7.70;99.90;;;;;;5198451;28;20457;-47
2023/12/29 01:24:53;;;;;;;1.20;1.10;;;7.70;99.90;;;;;;5180568;28;20214;-48
2023/12/29 01:27:24;;;;;;;1.03;1.03;;;7.70;99.90;;;;;;5197959;28;20223;-49
2023/12/29 01:29:55;;;;;;;1.30;1.20;;;7.60;99.90;;;;;;5184399;28;20569;-48
2023/12/29 01:32:25;;;;;;;2.67;1.33;;;7.70;99.90;;;;;;5183693;28;20177;-49
2023/12/29 01:34:56;;;;;;;0.93;0.80;;;7.70;99.90;;;;;;5203997;28;20187;-48
2023/12/29 01:37:27;;;;;;;1.53;0.93;;;7.70;99.90;;;;;;5185059;28;20992;-48
2023/12/29 01:39:57;;;;;;;2.93;1.33;;;7.70;99.90;;;;;;5187100;28;20249;-48
2023/12/29 01:42:28;;;;;;;1.40;1.30;;;7.70;99.90;;;;;;5206285;28;20176;-47
2023/12/29 01:44:58;;;;;;;1.40;1.30;;;7.70;99.90;;;;;;5186441;28;20520;-47
2023/12/29 01:47:30;;;;;;;4.60;1.57;;;7.60;99.90;;;;;;5205027;28;20246;-48
2023/12/29 01:50:00;;;;;;;1.00;1.00;;;7.60;99.90;;;;;;5185769;28;20176;-48
2023/12/29 01:52:31;;;;;;;1.90;1.80;;;7.70;99.90;;;;;;5201846;28;20469;-48
2023/12/29 01:55:02;;;;;;;2.33;1.00;;;7.60;99.90;;;;;;5196240;28;20270;-48
2023/12/29 01:57:35;;;;;;;3.23;1.47;;;7.60;99.90;;;;;;5201446;28;20207;-48
2023/12/29 02:00:06;;;;;;;1.30;1.20;;;7.60;99.90;;;;;;5186656;28;20283;-49
2023/12/29 02:02:37;;;;;;;3.90;1.63;;;7.60;99.90;;;;;;5197633;28;20466;-47
2023/12/29 02:05:08;;;;;;;4.50;1.93;;;7.50;99.90;;;;;;5204370;28;20515;-49
2023/12/29 02:07:40;;;;;;;4.20;1.40;;;7.50;99.90;;;;;;5203751;28;20219;-49
2023/12/29 02:10:15;;;;;;;1.20;1.20;;;7.50;99.90;;;;;;5185226;28;20981;-49
2023/12/29 02:12:48;;;;;;;2.73;1.20;;;7.50;99.90;;;;;;5200601;28;20960;-48
2023/12/29 02:15:19;;;;;;;0.90;0.90;;;7.50;99.90;;;;;;5202593;28;20488;-48
2023/12/29 02:17:59;;;;;;;1.63;1.20;;;7.50;99.90;;;;;;5186183;28;20462;-48
2023/12/29 02:20:30;;;;;;;3.33;1.60;;;7.50;99.90;;;;;;5184123;28;20184;-49
2023/12/29 02:23:02;;;;;;;3.60;1.40;;;7.60;99.90;;;;;;5202545;28;20430;-49
2023/12/29 02:25:33;;;;;;;4.10;1.60;;;7.50;99.90;;;;;;5187079;28;20184;-49
2023/12/29 02:28:18;;;;;;;1.20;1.20;;;7.50;99.90;;;;;;5197418;28;20533;-49
2023/12/29 02:31:00;;;;;;;5.43;1.33;;;7.50;99.90;;;;;;5201315;28;20535;-49
2023/12/29 02:33:35;;;;;;;1.53;1.40;;;7.50;99.90;;;;;;5186845;28;20446;-49
2023/12/29 02:36:06;;;;;;;2.30;1.43;;;7.60;99.90;;;;;;5204589;28;20434;-49
2023/12/29 02:38:37;;;;;;;0.80;0.80;;;7.60;99.90;;;;;;5184141;28;20831;-50
2023/12/29 02:41:08;;;;;;;3.23;1.20;;;7.50;99.90;;;;;;5195321;28;20454;-49
2023/12/29 02:43:38;;;;;;;2.57;1.30;;;7.60;99.90;;;;;;5184944;28;20187;-48
2023/12/29 02:46:09;;;;;;;1.60;1.50;;;7.50;99.90;;;;;;5200605;28;20278;-48
2023/12/29 02:48:40;;;;;;;1.30;1.30;;;7.60;99.90;;;;;;5199792;28;20215;-49
2023/12/29 02:51:10;;;;;;;1.00;1.00;;;7.70;99.90;;;;;;5200298;28;20208;-46
2023/12/29 02:53:41;;;;;;;1.30;1.20;;;7.90;99.90;;;;;;5185633;28;20179;-48
2023/12/29 02:56:12;;;;;;;2.13;1.30;;;8.00;99.90;;;;;;5205482;28;20183;-48
2023/12/29 02:58:42;;;;;;;1.63;1.53;;;8.00;99.90;;;;;;5184513;28;20200;-49
2023/12/29 03:01:13;;;;;;;1.63;1.30;;;7.90;99.90;;;;;;5202427;28;20198;-49
2023/12/29 03:03:43;;;;;;;1.20;1.10;;;7.90;99.90;;;;;;5201229;28;20230;-49
2023/12/29 03:06:14;;;;;;;1.20;1.17;;;7.90;99.90;;;;;;5201795;28;20183;-47
2023/12/29 03:08:45;;;;;;;2.20;1.43;;;7.90;99.90;;;;;;5203600;28;20292;-48
2023/12/29 03:11:15;;;;;;;2.77;1.57;;;7.90;99.90;;;;;;5207757;28;20187;-48
2023/12/29 03:13:46;;;;;;;1.33;1.30;;;8.00;99.90;;;;;;5206521;28;20274;-48
2023/12/29 03:16:16;;;;;;;1.23;1.07;;;8.10;99.90;;;;;;5188410;28;20176;-49
2023/12/29 03:18:47;;;;;;;4.03;1.23;;;8.10;99.90;;;;;;5199735;28;20200;-49
2023/12/29 03:21:18;;;;;;;2.97;1.30;;;8.10;99.90;;;;;;5203453;28;20233;-49
2023/12/29 03:23:48;;;;;;;1.20;1.20;;;8.00;99.90;;;;;;5201134;28;20188;-47
2023/12/29 03:26:19;;;;;;;1.00;0.90;;;7.90;99.90;;;;;;5208132;28;20179;-48
2023/12/29 03:28:50;;;;;;;1.30;1.30;;;7.80;99.90;;;;;;5189258;28;20265;-48
2023/12/29 03:31:21;;;;;;;0.83;0.83;;;7.80;99.90;;;;;;5202955;28;20183;-48
2023/12/29 03:33:51;;;;;;;1.70;0.80;;;7.80;99.90;;;;;;5193067;28;20430;-48
2023/12/29 03:36:22;;;;;;;1.13;1.10;;;7.80;99.90;;;;;;5169285;28;20202;-49
2023/12/29 03:38:52;;;;;;;0.90;0.90;;;7.80;99.90;;;;;;5199129;28;20524;-49
2023/12/29 03:41:23;;;;;;;1.37;1.10;;;7.80;99.90;;;;;;5202051;28;20219;-47
2023/12/29 03:43:56;;;;;;;1.47;1.37;;;7.90;99.90;;;;;;5183793;28;20598;-48
2023/12/29 03:46:26;;;;;;;0.70;0.70;;;8.00;99.90;;;;;;5180836;28;20187;-47
2023/12/29 03:48:57;;;;;;;1.00;1.00;;;7.90;99.90;;;;;;5181787;28;20812;-48
2023/12/29 03:51:28;;;;;;;0.90;0.80;;;8.10;99.90;;;;;;5199056;28;20197;-48
2023/12/29 03:53:59;;;;;;;1.30;1.20;;;8.10;99.90;;;;;;5183680;28;20245;-47
2023/12/29 03:56:29;;;;;;;1.50;1.03;;;8.10;99.90;;;;;;5203067;28;20593;-48
2023/12/29 03:59:00;;;;;;;1.20;1.20;;;8.20;99.90;;;;;;5186775;28;20198;-48
2023/12/29 04:01:33;;;;;;;1.67;1.10;;;8.20;99.90;;;;;;5191527;28;20207;-48
2023/12/29 04:04:04;;;;;;;2.23;1.37;;;8.30;99.90;;;;;;5181867;28;20324;-48
2023/12/29 04:06:34;;;;;;;1.40;1.40;;;8.30;99.90;;;;;;5184513;28;20450;-47
2023/12/29 04:09:05;;;;;;;0.90;0.90;;;8.30;99.90;;;;;;5202986;28;20247;-48
2023/12/29 04:11:35;;;;;;;0.80;0.80;;;8.40;99.90;;;;;;5203786;28;20180;-49
2023/12/29 04:14:08;;;;;;;1.00;1.00;;;8.40;99.90;;;;;;5201819;28;20179;-49
2023/12/29 04:16:39;;;;;;;1.47;1.47;;;8.40;99.90;;;;;;5202062;28;21919;-49
2023/12/29 04:19:09;;;;;;;1.07;1.07;;;8.40;99.90;;;;;;5201214;28;20454;-49
2023/12/29 04:21:40;;;;;;;2.77;1.00;;;8.30;99.90;;;;;;5183413;28;20183;-49
2023/12/29 04:24:11;;;;;;;1.37;1.27;;;8.30;99.90;;;;;;5185299;28;20180;-48
2023/12/29 04:26:41;;;;;;;1.47;1.37;;;8.30;99.90;;;;;;5202012;28;20286;-49
2023/12/29 04:29:12;;;;;;;0.80;0.80;;;8.30;99.90;;;;;;5203382;28;20179;-48
2023/12/29 04:31:42;;;;;;;1.20;1.13;;;8.20;99.90;;;;;;5199465;28;20219;-48
2023/12/29 04:34:13;;;;;;;4.90;1.27;;;8.20;99.90;;;;;;5197845;28;20258;-49
2023/12/29 04:36:44;;;;;;;0.77;0.77;;;8.20;99.90;;;;;;5186332;28;20236;-49
2023/12/29 04:39:14;;;;;;;0.70;0.70;;;8.20;99.90;;;;;;5190554;28;20718;-49
2023/12/29 04:41:45;;;;;;;0.97;0.90;;;8.20;99.90;;;;;;5197996;28;20191;-48
2023/12/29 04:44:15;;;;;;;0.60;0.60;;;8.20;99.90;;;;;;5205390;28;20234;-49
2023/12/29 04:46:46;;;;;;;1.33;1.30;;;8.20;99.90;;;;;;5182666;28;20203;-50
2023/12/29 04:49:17;;;;;;;2.37;0.87;;;8.10;99.90;;;;;;5199505;28;20295;-50
2023/12/29 04:51:48;;;;;;;4.93;1.27;;;8.10;99.90;;;;;;5185165;28;20183;-49
2023/12/29 04:54:18;;;;;;;2.87;1.50;;;8.00;99.90;;;;;;5182843;28;20688;-48
2023/12/29 04:56:50;;;;;;;1.13;1.13;;;8.00;99.90;;;;;;5202985;28;20601;-50
2023/12/29 04:59:21;;;;;;;3.47;2.00;;;7.90;99.90;;;;;;5183536;28;20199;-48
2023/12/29 05:01:51;;;;;;;1.20;1.20;;;7.90;99.90;;;;;;5202010;28;20442;-49
2023/12/29 05:04:22;;;;;;;1.80;0.80;;;7.90;99.90;;;;;;5186621;28;20176;-50
2023/12/29 05:06:52;;;;;;;1.27;1.00;;;7.80;99.90;;;;;;5188328;28;20246;-49
2023/12/29 05:09:23;;;;;;;2.67;0.90;;;7.80;99.90;;;;;;5206821;28;20760;-50
2023/12/29 05:11:54;;;;;;;1.80;1.20;;;7.80;99.90;;;;;;5211413;28;20533;-49
2023/12/29 05:14:24;;;;;;;3.40;0.50;;;7.90;99.90;;;;;;5202498;28;20656;-48
2023/12/29 05:16:55;;;;;;;0.80;0.80;;;7.90;99.90;;;;;;5204339;28;20203;-48
2023/12/29 05:19:25;;;;;;;1.93;0.70;;;7.90;99.90;;;;;;5190075;28;20644;-47
2023/12/29 05:21:56;;;;;;;0.87;0.87;;;8.00;99.90;;;;;;5202245;28;20196;-48
2023/12/29 05:24:27;;;;;;;1.23;0.90;;;8.00;99.90;;;;;;5189748;28;20180;-47
2023/12/29 05:26:58;;;;;;;0.90;0.73;;;8.00;99.90;;;;;;5206155;28;20654;-48
2023/12/29 05:29:28;;;;;;;1.20;0.87;;;8.00;99.90;;;;;;5188528;28;20175;-48
2023/12/29 05:31:59;;;;;;;2.30;1.83;;;8.00;99.90;;;;;;5185029;28;20548;-47
2023/12/29 05:34:29;;;;;;;1.20;1.20;;;8.10;99.90;;;;;;5188866;28;20266;-47
2023/12/29 05:37:00;;;;;;;3.03;1.27;;;8.10;99.90;;;;;;5188027;28;20199;-46
2023/12/29 05:39:30;;;;;;;9.03;1.40;;;8.10;99.90;;;;;;5205872;28;20183;-48
2023/12/29 05:42:01;;;;;;;0.90;0.90;;;8.20;99.90;;;;;;5206082;28;20192;-47
2023/12/29 05:44:32;;;;;;;0.50;0.50;;;8.30;99.90;;;;;;5203713;28;20698;-47
2023/12/29 05:47:03;;;;;;;4.83;0.93;;;8.30;99.90;;;;;;5203057;28;20214;-48
2023/12/29 05:49:37;;;;;;;2.47;1.20;;;8.30;99.90;;;;;;5200864;28;20200;-47
2023/12/29 05:52:08;;;;;;;1.37;0.80;;;8.40;99.90;;;;;;5204403;28;20194;-47
2023/12/29 05:54:39;;;;;;;0.60;0.60;;;8.40;99.90;;;;;;5211104;28;20422;-47
2023/12/29 05:57:09;;;;;;;1.13;0.70;;;8.40;99.90;;;;;;5207039;28;20203;-47
2023/12/29 05:59:40;;;;;;;2.10;0.70;;;8.40;99.90;;;;;;5204314;28;20703;-47
2023/12/29 06:02:10;;;;;;;1.20;0.80;;;8.40;99.90;;;;;;5205952;28;20208;-46
2023/12/29 06:04:41;;;;;;;0.70;0.50;;;8.30;99.90;;;;;;5204910;28;20635;-46
2023/12/29 06:07:12;;;;;;;0.60;0.60;;;8.30;99.90;;;;;;5206010;28;20567;-48
2023/12/29 06:09:42;;;;;;;0.60;0.60;;;8.30;99.90;;;;;;5187502;28;20187;-47
2023/12/29 06:12:13;;;;;;;1.03;0.67;;;8.40;99.90;;;;;;5189423;28;20179;-46
2023/12/29 06:14:44;;;;;;;3.07;1.10;;;8.40;99.90;;;;;;5187335;28;20176;-47
2023/12/29 06:17:15;;;;;;;0.93;0.77;;;8.40;99.90;;;;;;5169853;28;20218;-46
2023/12/29 06:19:45;;;;;;;4.23;0.50;;;8.40;99.90;;;;;;5171883;28;20192;-47
2023/12/29 06:22:16;;;;;;;2.23;0.77;;;8.50;99.90;;;;;;5187394;28;20819;-47
2023/12/29 06:24:46;;;;;;;0.90;0.83;;;8.60;99.90;;;;;;5184795;28;20195;-46
2023/12/29 06:27:17;;;;;;;0.90;0.63;;;8.70;99.90;;;;;;5201707;28;20215;-46
2023/12/29 06:29:48;;;;;;;1.13;0.40;;;8.70;99.90;;;;;;5202285;28;20188;-49
2023/12/29 06:32:20;;;;;;;0.63;0.63;;;8.70;99.90;;;;;;5201536;28;20180;-47
2023/12/29 06:34:51;;;;;;;0.90;0.70;;;8.70;99.90;;;;;;5192561;28;20184;-48
2023/12/29 06:37:22;;;;;;;1.23;0.63;;;8.70;99.90;;;;;;5187476;28;20815;-47
2023/12/29 06:39:53;;;;;;;2.70;0.70;;;8.80;99.90;;;;;;5187511;28;20468;-48
2023/12/29 06:42:23;;;;;;;2.20;0.83;;;8.80;99.90;;;;;;5188966;28;20192;-46
2023/12/29 06:44:54;;;;;;;3.83;0.90;;;8.80;99.90;;;;;;5203583;28;20196;-47
2023/12/29 06:47:25;;;;;;;8.80;0.80;;;8.80;99.90;;;;;;5203820;28;20215;-48
2023/12/29 06:49:57;;;;;;;1.20;1.10;;;8.80;99.90;;;;;;5200646;28;20183;-47
2023/12/29 06:52:30;;;;;;;0.60;0.60;;;8.80;99.90;;;;;;5184204;28;20246;-48
2023/12/29 06:55:01;;;;;;;3.53;0.70;;;8.80;99.90;;;;;;5202689;28;20470;-47
2023/12/29 06:57:32;;;;;;;0.80;0.60;;;8.80;99.90;;;;;;5202342;28;20886;-48
2023/12/29 07:00:04;;;;;;;1.57;0.90;;;8.90;99.90;;;;;;5206718;28;20433;-47
2023/12/29 07:02:38;;;;;;;9.10;1.30;;;9.00;99.90;;;;;;5199519;28;20192;-47
2023/12/29 07:05:09;;;;;;;1.27;1.00;;;8.80;99.90;;;;;;5187484;28;20481;-48
2023/12/29 07:07:40;;;;;;;1.07;0.80;;;8.80;99.90;;;;;;5207064;28;20505;-46
2023/12/29 07:10:14;;;;;;;2.40;0.77;;;8.80;99.90;;;;;;5204117;28;20540;-47
2023/12/29 07:12:44;;;;;;;0.80;0.80;;;8.80;99.90;;;;;;5199364;28;20193;-47
2023/12/29 07:15:15;;;;;;;1.50;0.70;;;9.00;99.90;;;;;;5205918;28;20965;-48
2023/12/29 07:17:46;;;;;;;0.93;0.77;;;9.00;99.90;;;;;;5198410;28;20207;-46
2023/12/29 07:20:17;;;;;;;0.90;0.90;;;9.10;99.90;;;;;;5188305;28;20444;-47
2023/12/29 07:22:47;;;;;;;1.63;0.80;;;9.10;99.90;;;;;;5190717;28;20283;-49
2023/12/29 07:25:18;;;;;;;1.00;1.00;;;9.10;99.90;;;;;;5197146;28;20258;-49
2023/12/29 07:27:49;;;;;;;1.53;0.90;;;9.20;99.90;;;;;;5185819;28;20298;-47
2023/12/29 07:30:19;;;;;;;1.70;0.90;;;9.20;99.90;;;;;;5192817;28;20191;-49
2023/12/29 07:32:51;;;;;;;2.20;1.07;;;9.30;99.90;;;;;;5202189;28;20184;-47
2023/12/29 07:35:22;;;;;;;0.83;0.57;;;9.40;99.90;;;;;;5200629;28;20199;-46
2023/12/29 07:37:52;;;;;;;0.70;0.70;;;9.30;99.90;;;;;;5190283;28;20502;-48
2023/12/29 07:40:23;;;;;;;1.93;0.90;;;9.30;99.90;;;;;;5190583;28;20226;-47
2023/12/29 07:42:53;;;;;;;2.00;1.10;;;9.50;99.90;;;;;;5186561;28;20656;-47
2023/12/29 07:45:24;;;;;;;1.23;1.23;;;9.50;99.90;;;;;;5188642;28;20186;-49
2023/12/29 07:47:55;;;;;;;2.87;1.10;;;9.40;99.90;;;;;;5203391;28;20302;-49
2023/12/29 07:50:26;;;;;;;1.90;0.87;;;9.50;99.90;;;;;;5200941;28;20586;-47
2023/12/29 07:52:57;;;;;;;2.10;1.00;;;9.40;99.90;;;;;;5184265;28;20434;-49
2023/12/29 07:55:27;;;;;;;1.13;1.10;;;9.30;99.90;;;;;;5201991;28;20183;-46
2023/12/29 07:57:58;;;;;;;1.53;0.83;;;9.30;99.90;;;;;;5189846;28;20227;-48
2023/12/29 08:00:28;;;;;;;6.27;0.97;;;9.30;99.90;;;;;;5187639;28;20560;-47
2023/12/29 08:02:59;;;;;;;2.63;1.10;;;9.30;99.90;;;;;;5213896;28;20662;-48
2023/12/29 08:05:30;;;;;;;5.07;0.90;;;9.30;99.90;;;;;;5204504;28;20183;-46
2023/12/29 08:08:01;;;;;;;1.00;1.00;;;9.50;99.90;;;;;;5205111;28;20238;-47
2023/12/29 08:10:34;;;;;;;1.53;1.30;;;9.70;99.90;;;;;;5200613;28;20260;-47
2023/12/29 08:13:07;;;;;;;1.47;1.03;;;9.80;99.90;;;;;;5186561;28;20180;-48
2023/12/29 08:15:38;;;;;;;1.30;1.20;;;9.80;99.90;;;;;;5204360;28;20434;-48
2023/12/29 08:18:09;;;;;;;1.63;1.03;;;9.90;99.90;;;;;;5196010;28;20470;-48
2023/12/29 08:20:41;;;;;;;1.53;1.00;;;9.80;99.90;;;;;;5192041;28;20214;-47
2023/12/29 08:23:11;;;;;;;2.90;1.30;;;9.90;99.90;;;;;;5208818;28;20545;-47
2023/12/29 08:25:42;;;;;;;2.30;0.80;;;9.90;99.90;;;;;;5187061;28;20282;-47
2023/12/29 08:28:13;;;;;;;0.63;0.63;;;10.00;99.90;;;;;;5185305;28;20298;-48
2023/12/29 08:30:47;;;;;;;1.63;1.10;;;10.00;99.90;;;;;;5213240;28;20422;-46
2023/12/29 08:33:18;;;;;;;1.67;1.00;;;10.10;99.90;;;;;;5187374;28;20443;-48
2023/12/29 08:35:49;;;;;;;1.10;1.10;;;10.30;99.90;;;;;;5176447;28;21047;-46
2023/12/29 08:38:19;;;;;;;1.63;1.20;;;10.40;99.90;;;;;;5196052;28;20575;-48
2023/12/29 08:40:50;;;;;;;7.30;0.97;;;10.30;99.90;;;;;;5172810;28;20614;-47
2023/12/29 08:43:21;;;;;;;2.83;1.10;;;10.20;99.90;;;;;;5190600;28;20274;-47
2023/12/29 08:45:52;;;;;;;6.97;2.80;;;10.20;99.90;;;;;;5191661;28;20191;-47
2023/12/29 08:48:23;;;;;;;2.50;2.17;;;10.20;99.90;;;;;;5198615;28;20481;-47
2023/12/29 08:50:53;;;;;;;3.00;1.60;;;10.20;99.90;;;;;;5188936;28;20180;-47
2023/12/29 08:53:25;;;;;;;2.10;1.23;;;10.20;99.90;;;;;;5198265;28;20471;-46
2023/12/29 08:55:55;;;;;;;3.97;1.70;;;10.10;99.90;;;;;;5197000;28;20179;-46
2023/12/29 08:58:26;;;;;;;2.97;0.90;;;10.20;99.90;;;;;;5185747;28;20450;-48
2023/12/29 09:00:57;;;;;;;0.77;0.70;;;10.20;99.90;;;;;;5181688;28;20199;-47
2023/12/29 09:03:27;;;;;;;2.50;1.10;;;10.10;99.90;;;;;;5203771;28;20200;-46
2023/12/29 09:06:01;;;;;;;1.57;1.40;;;10.10;99.90;;;;;;5185012;28;20184;-47
2023/12/29 09:08:31;;;;;;;5.70;1.00;;;10.10;99.90;;;;;;5204726;28;20217;-48
2023/12/29 09:11:02;;;;;;;1.17;1.07;;;10.20;99.90;;;;;;5189352;28;20565;-48
2023/12/29 09:13:33;;;;;;;1.40;1.07;;;10.20;99.90;;;;;;5205103;28;20504;-47
2023/12/29 09:16:04;;;;;;;0.73;0.73;;;10.20;99.90;;;;;;5185025;28;20590;-47
2023/12/29 09:18:34;;;;;;;1.50;0.93;;;10.40;99.90;;;;;;5186401;28;20260;-47
2023/12/29 09:21:05;;;;;;;4.37;0.97;;;10.40;99.90;;;;;;5185435;28;20457;-47
2023/12/29 09:23:38;;;;;;;1.30;0.97;;;10.50;99.90;;;;;;5185980;28;20636;-48
2023/12/29 09:26:08;;;;;;;1.57;1.00;;;10.50;99.90;;;;;;5201978;28;20257;-47
2023/12/29 09:28:45;;;;;;;2.47;1.40;;;10.70;99.90;;;;;;5202226;28;20481;-47
2023/12/29 09:31:16;;;;;;;5.37;1.20;;;10.60;99.90;;;;;;5180502;28;20183;-48
2023/12/29 09:33:46;;;;;;;4.83;0.97;;;10.70;99.90;;;;;;5183190;28;20802;-48
2023/12/29 09:36:17;;;;;;;5.60;1.87;;;10.70;99.90;;;;;;5194892;28;20652;-50
2023/12/29 09:38:47;;;;;;;2.90;1.63;;;10.70;99.90;;;;;;5200020;28;20219;-49
2023/12/29 09:41:22;;;;;;;4.30;1.33;;;10.80;99.90;;;;;;5198345;28;20649;-48
2023/12/29 09:43:53;;;;;;;1.50;1.30;;;10.90;99.90;;;;;;5197952;28;20182;-47
2023/12/29 09:46:25;;;;;;;3.40;1.13;;;11.10;99.90;;;;;;5188454;28;20449;-47
2023/12/29 09:49:00;;;;;;;3.57;1.63;;;11.10;99.90;;;;;;5204320;28;20305;-47
2023/12/29 09:51:31;;;;;;;1.20;1.10;;;10.90;99.90;;;;;;5180986;28;20433;-49
2023/12/29 09:54:02;;;;;;;2.80;1.30;;;10.90;99.90;;;;;;5195710;28;20443;-47
2023/12/29 09:56:33;;;;;;;1.57;1.27;;;10.80;99.90;;;;;;5202308;28;20435;-48
2023/12/29 09:59:04;;;;;;;1.10;1.07;;;10.80;99.90;;;;;;5202211;28;20988;-48
2023/12/29 10:01:37;;;;;;;1.47;0.93;;;10.80;99.90;;;;;;5201283;28;20438;-47
2023/12/29 10:04:08;;;;;;;7.40;1.67;;;10.70;99.90;;;;;;5205486;28;20191;-46
2023/12/29 10:06:42;;;;;;;1.17;1.00;;;10.80;99.90;;;;;;5195207;28;20441;-47
2023/12/29 10:09:16;;;;;;;2.10;0.90;;;10.90;99.90;;;;;;5206380;28;20441;-46
2023/12/29 10:11:49;;;;;;;1.30;1.00;;;10.90;99.90;;;;;;5191920;28;20862;-47
2023/12/29 10:14:26;;;;;;;4.33;0.97;;;11.10;99.90;;;;;;5205416;28;20470;-46
2023/12/29 10:17:09;;;;;;;2.20;1.30;;;11.10;99.90;;;;;;5188626;28;20991;-47
2023/12/29 10:19:45;;;;;;;2.30;1.50;;;11.20;99.90;;;;;;5187924;28;20457;-47
2023/12/29 10:22:23;;;;;;;2.00;1.30;;;11.10;99.90;;;;;;5203791;28;20461;-46
2023/12/29 10:24:55;;;;;;;2.43;1.03;;;11.10;99.90;;;;;;5186968;28;20437;-48
2023/12/29 10:27:25;;;;;;;1.50;0.97;;;11.20;99.90;;;;;;5205185;28;20818;-47
2023/12/29 10:29:56;;;;;;;2.97;2.77;;;11.20;99.90;;;;;;5188836;28;20438;-47
2023/12/29 10:32:29;;;;;;;2.30;0.97;;;11.20;99.90;;;;;;5205613;28;20175;-46
2023/12/29 10:35:18;;;;;;;3.60;1.20;;;11.20;99.90;;;;;;5189202;28;20569;-47
2023/12/29 10:37:48;;;;;;;2.93;1.33;;;11.30;99.90;;;;;;5187619;28;20977;-48
2023/12/29 10:40:20;;;;;;;2.30;0.93;;;11.40;99.90;;;;;;5186960;28;20438;-50
2023/12/29 10:42:57;;;;;;;3.10;1.57;;;11.40;99.90;;;;;;5200342;28;20179;-47
2023/12/29 10:45:28;;;;;;;4.10;1.47;;;11.40;99.90;;;;;;5204671;28;20432;-47
2023/12/29 10:48:02;;;;;;;1.93;1.20;;;11.40;99.90;;;;;;5184568;28;20841;-47
2023/12/29 10:50:44;;;;;;;1.53;1.43;;;11.50;99.90;;;;;;5197888;28;20179;-47
2023/12/29 10:53:17;;;;;;;6.30;0.93;;;11.50;99.90;;;;;;5201670;28;20442;-49
2023/12/29 10:55:48;;;;;;;4.40;0.80;;;11.50;99.90;;;;;;5186895;28;20492;-49
2023/12/29 10:58:19;;;;;;;1.33;1.20;;;11.60;99.90;;;;;;5202539;28;20470;-46
2023/12/29 11:00:50;;;;;;;3.63;1.33;;;11.70;99.90;;;;;;5213520;28;20565;-48
2023/12/29 11:03:21;;;;;;;5.17;1.40;;;11.70;99.90;;;;;;5196520;28;20442;-48
2023/12/29 11:06:01;;;;;;;2.20;1.40;;;11.70;99.90;;;;;;5201815;28;20195;-48
2023/12/29 11:08:35;;;;;;;1.57;0.93;;;11.70;99.90;;;;;;5189134;23;20988;-54
2023/12/29 11:11:07;;;;;;;3.33;1.53;;;11.70;99.90;;;;;;5184040;28;21111;-52
2023/12/29 11:13:38;;;;;;;1.60;1.10;;;11.80;99.90;;;;;;5194776;28;20804;-52
2023/12/29 11:16:09;;;;;;;1.30;1.30;;;11.80;99.90;;;;;;5216846;28;20433;-52
2023/12/29 11:18:43;;;;;;;1.90;1.40;;;11.70;99.90;;;;;;5223292;28;20313;-53
2023/12/29 11:21:14;;;;;;;2.10;1.73;;;11.70;99.90;;;;;;5205839;28;20956;-52
2023/12/29 11:23:45;;;;;;;4.70;2.43;;;11.70;99.90;;;;;;5219982;28;20988;-52
2023/12/29 11:26:16;;;;;;;2.13;1.83;;;11.70;99.90;;;;;;5205852;28;20429;-51
2023/12/29 11:28:50;;;;;;;8.30;1.87;;;11.70;99.90;;;;;;5205740;28;20249;-53
2023/12/29 11:31:21;;;;;;;2.30;1.57;;;11.70;99.90;;;;;;5199395;28;21856;-51
2023/12/29 11:34:02;;;;;;;2.53;1.77;;;11.70;99.90;;;;;;5218561;28;20516;-50
2023/12/29 11:36:38;;;;;;;8.13;3.90;;;11.60;99.90;;;;;;5218516;28;20461;-51
2023/12/29 11:39:14;;;;;;;2.70;1.80;;;11.60;99.90;;;;;;5217243;28;20475;-52
2023/12/29 11:42:06;;;;;;;6.13;2.10;;;11.60;99.90;;;;;;5202170;28;20441;-53
2023/12/29 11:44:37;;;;;;;4.47;1.13;;;11.60;99.90;;;;;;5220926;28;20528;-51
2023/12/29 11:47:34;;;;;;;2.60;1.53;;;11.60;99.90;;;;;;5203458;28;20461;-50
2023/12/29 11:50:05;;;;;;;2.73;1.77;;;11.60;99.90;;;;;;5199135;28;20179;-52
2023/12/29 11:52:37;;;;;;;1.57;1.37;;;11.60;99.90;;;;;;5205108;28;20479;-51
2023/12/29 11:55:09;;;;;;;4.00;1.10;;;11.60;99.90;;;;;;5207479;28;20425;-52
2023/12/29 11:57:40;;;;;;;1.50;1.40;;;11.60;99.90;;;;;;5202125;28;20509;-52
2023/12/29 12:00:11;;;;;;;3.33;3.03;;;11.50;99.90;;;;;;5220689;28;20477;-50
2023/12/29 12:02:42;;;;;;;5.70;1.90;;;11.50;99.90;;;;;;5224134;28;20437;-50
2023/12/29 12:05:44;;;;;;;3.90;1.57;;;11.50;99.90;;;;;;5205198;28;20437;-50
2023/12/29 12:08:28;;;;;;;8.60;1.87;;;11.50;99.90;;;;;;5220385;28;20724;-51
2023/12/29 12:11:35;;;;;;;4.37;1.80;;;11.50;99.90;;;;;;5220378;28;20444;-51
2023/12/29 12:14:06;;;;;;;3.57;2.27;;;11.40;99.90;;;;;;5221504;28;20432;-52
2023/12/29 12:16:44;;;;;;;1.30;1.20;;;11.40;99.90;;;;;;5219372;28;20440;-51
2023/12/29 12:19:16;;;;;;;4.77;1.43;;;11.40;99.90;;;;;;5223911;28;20309;-52
2023/12/29 12:21:50;;;;;;;3.73;1.27;;;11.40;99.90;;;;;;5204897;28;20455;-52
2023/12/29 12:24:21;;;;;;;2.40;1.73;;;11.30;99.90;;;;;;5202958;28;20949;-52
2023/12/29 12:26:52;;;;;;;2.53;2.10;;;11.30;99.90;;;;;;5205469;28;20502;-52
2023/12/29 12:29:25;;;;;;;4.30;1.30;;;11.20;99.90;;;;;;5203059;28;20262;-53
2023/12/29 12:31:57;;;;;;;1.37;1.13;;;11.20;99.90;;;;;;5201909;28;20190;-51
2023/12/29 12:34:36;;;;;;;5.40;1.47;;;11.10;99.90;;;;;;5202498;28;20457;-54
2023/12/29 12:37:08;;;;;;;4.40;1.33;;;11.00;99.90;;;;;;5202007;28;20421;-54
2023/12/29 12:39:42;;;;;;;2.83;1.13;;;11.00;99.90;;;;;;5198590;28;20429;-53
2023/12/29 12:42:13;;;;;;;5.50;2.07;;;10.90;99.90;;;;;;5202514;28;20953;-53
2023/12/29 12:45:04;;;;;;;5.30;1.63;;;10.80;99.90;;;;;;5218946;28;20433;-52
2023/12/29 12:47:51;;;;;;;3.87;2.00;;;10.70;99.90;;;;;;5200628;28;20466;-52
2023/12/29 12:50:22;;;;;;;1.60;1.40;;;10.50;99.90;;;;;;5190056;28;20429;-52
2023/12/29 12:52:52;;;;;;;2.73;1.60;;;10.40;99.90;;;;;;5219380;28;20453;-52
2023/12/29 12:55:23;;;;;;;4.27;1.37;;;10.40;99.90;;;;;;5202377;28;20176;-53
2023/12/29 12:57:56;;;;;;;3.80;1.50;;;10.40;99.90;;;;;;5205582;28;20206;-53
2023/12/29 13:00:28;;;;;;;1.80;1.07;;;10.40;99.90;;;;;;5220037;28;20187;-52
2023/12/29 13:03:00;;;;;;;3.70;0.97;;;10.30;99.90;;;;;;5186809;28;20441;-55
2023/12/29 13:05:31;;;;;;;5.23;1.70;;;10.20;99.90;;;;;;5200257;28;20445;-53
2023/12/29 13:08:03;;;;;;;6.87;2.00;;;10.10;99.90;;;;;;5214856;28;20472;-53
2023/12/29 13:10:34;;;;;;;3.33;2.87;;;10.00;99.90;;;;;;5214579;28;20243;-53
2023/12/29 13:13:04;;;;;;;8.13;1.90;;;10.00;99.90;;;;;;5219399;28;20568;-53
2023/12/29 13:15:44;;;;;;;4.40;2.20;;;9.90;99.90;;;;;;5217650;28;20433;-53
2023/12/29 13:18:15;;;;;;;3.57;2.17;;;9.90;99.90;;;;;;5217840;28;20198;-53